createdAt,value
2022-08-25T00:02:56.455Z,6.05
2022-08-25T00:06:00.710Z,6.13
2022-08-25T00:09:05.649Z,5.77
2022-08-25T00:12:08.739Z,6.40
2022-08-25T00:15:11.728Z,6.25
2022-08-25T00:18:19.842Z,6.78
2022-08-25T00:21:23.152Z,7.00
2022-08-25T00:24:26.260Z,6.10
2022-08-25T00:27:29.225Z,5.88
2022-08-25T00:30:32.214Z,6.28
2022-08-25T00:33:35.188Z,6.20
2022-08-25T00:36:38.426Z,6.15
2022-08-25T00:39:41.379Z,6.53
2022-08-25T00:42:47.426Z,6.20
2022-08-25T00:45:50.511Z,6.72
2022-08-25T00:48:59.199Z,6.10
2022-08-25T00:52:16.601Z,6.30
2022-08-25T00:55:25.780Z,6.47
2022-08-25T00:58:29.189Z,5.95
2022-08-25T01:01:32.187Z,6.65
2022-08-25T01:04:35.214Z,6.70
2022-08-25T01:07:38.376Z,6.78
2022-08-25T01:10:42.908Z,6.50
2022-08-25T01:13:51.672Z,7.10
2022-08-25T01:16:54.695Z,6.55
2022-08-25T01:19:57.636Z,6.10
2022-08-25T01:23:00.932Z,6.60
2022-08-25T01:26:10.969Z,6.87
2022-08-25T01:29:25.303Z,6.82
2022-08-25T01:32:28.305Z,5.63
2022-08-25T01:35:31.327Z,6.88
2022-08-25T01:38:34.704Z,5.50
2022-08-25T01:42:02.966Z,6.57
2022-08-25T01:45:06.450Z,6.03
2022-08-25T01:48:10.069Z,6.63
2022-08-25T01:51:14.396Z,6.78
2022-08-25T01:54:17.356Z,7.28
2022-08-25T01:57:20.337Z,7.00
2022-08-25T02:00:24.269Z,6.90
2022-08-25T02:03:27.375Z,7.72
2022-08-25T02:06:32.490Z,6.85
2022-08-25T02:09:36.751Z,7.13
2022-08-25T02:12:39.748Z,7.00
2022-08-25T02:15:46.784Z,7.05
2022-08-25T02:18:49.734Z,6.90
2022-08-25T02:21:52.863Z,6.97
2022-08-25T02:24:55.846Z,7.10
2022-08-25T02:27:58.967Z,7.53
2022-08-25T02:31:02.007Z,7.72
2022-08-25T02:34:05.410Z,8.05
2022-08-25T02:37:08.680Z,8.40
2022-08-25T02:40:12.613Z,7.80
2022-08-25T02:43:17.325Z,9.23
2022-08-25T02:46:20.910Z,8.48
2022-08-25T02:49:24.344Z,8.63
2022-08-25T02:52:27.320Z,8.82
2022-08-25T02:55:30.411Z,8.05
2022-08-25T02:58:37.792Z,8.77
2022-08-25T03:01:40.831Z,8.70
2022-08-25T03:04:44.100Z,9.57
2022-08-25T03:07:47.124Z,9.38
2022-08-25T03:10:50.451Z,9.30
2022-08-25T03:13:55.879Z,10.37
2022-08-25T03:16:58.940Z,9.60
2022-08-25T03:20:01.907Z,9.77
2022-08-25T03:23:05.505Z,9.30
2022-08-25T03:26:27.189Z,9.32
2022-08-25T03:29:31.971Z,8.73
2022-08-25T03:32:34.917Z,8.77
2022-08-25T03:35:37.893Z,9.65
2022-08-25T03:38:41.030Z,9.35
2022-08-25T03:41:44.103Z,8.30
2022-08-25T03:44:47.118Z,8.03
2022-08-25T03:47:50.456Z,8.80
2022-08-25T03:50:54.793Z,7.43
2022-08-25T03:53:59.037Z,7.80
2022-08-25T03:57:01.999Z,8.63
2022-08-25T04:00:08.151Z,8.07
2022-08-25T04:03:14.578Z,8.50
2022-08-25T04:06:17.996Z,8.13
2022-08-25T04:09:21.011Z,7.97
2022-08-25T04:12:24.185Z,7.22
2022-08-25T04:15:30.231Z,6.53
2022-08-25T04:18:34.340Z,6.70
2022-08-25T04:21:39.021Z,8.18
2022-08-25T04:24:41.999Z,7.30
2022-08-25T04:27:44.946Z,6.93
2022-08-25T04:30:51.888Z,7.67
2022-08-25T04:33:55.196Z,7.05
2022-08-25T04:36:59.309Z,6.78
2022-08-25T04:40:02.554Z,6.35
2022-08-25T04:43:05.591Z,5.93
2022-08-25T04:46:11.298Z,7.33
2022-08-25T04:49:14.399Z,7.22
2022-08-25T04:52:17.793Z,6.78
2022-08-25T04:55:20.757Z,6.85
2022-08-25T04:58:23.728Z,7.05
2022-08-25T05:01:27.703Z,6.60
2022-08-25T05:04:30.987Z,6.82
2022-08-25T05:07:33.988Z,7.38
2022-08-25T05:10:40.565Z,7.03
2022-08-25T05:13:51.618Z,7.43
2022-08-25T05:16:56.576Z,6.87
2022-08-25T05:19:59.585Z,8.15
2022-08-25T05:23:02.536Z,7.90
2022-08-25T05:26:10.883Z,7.07
2022-08-25T05:29:16.028Z,7.60
2022-08-25T05:32:18.997Z,7.67
2022-08-25T05:35:21.951Z,7.22
2022-08-25T05:38:25.045Z,7.65
2022-08-25T05:41:29.936Z,7.22
2022-08-25T05:44:32.927Z,7.32
2022-08-25T05:47:35.931Z,6.87
2022-08-25T05:50:39.049Z,6.97
2022-08-25T05:53:43.860Z,6.55
2022-08-25T05:56:46.921Z,6.85
2022-08-25T05:59:50.012Z,6.80
2022-08-25T06:02:52.944Z,6.67
2022-08-25T06:06:05.775Z,6.32
2022-08-25T06:09:09.676Z,5.78
2022-08-25T06:12:12.798Z,7.38
2022-08-25T06:15:18.608Z,5.95
2022-08-25T06:18:21.666Z,5.87
2022-08-25T06:21:24.994Z,6.78
2022-08-25T06:24:28.403Z,6.60
2022-08-25T06:27:31.446Z,6.32
2022-08-25T06:30:34.439Z,6.35
2022-08-25T06:33:37.755Z,6.03
2022-08-25T06:36:40.950Z,6.13
2022-08-25T06:39:44.060Z,6.93
2022-08-25T06:42:49.331Z,5.97
2022-08-25T06:45:53.485Z,5.47
2022-08-25T06:48:56.936Z,5.80
2022-08-25T06:51:59.979Z,5.80
2022-08-25T06:55:03.591Z,6.20
2022-08-25T06:58:10.366Z,5.30
2022-08-25T07:01:20.630Z,5.90
2022-08-25T07:04:24.167Z,6.10
2022-08-25T07:07:43.502Z,6.13
2022-08-25T07:10:48.154Z,6.20
2022-08-25T07:13:51.419Z,5.32
2022-08-25T07:16:54.375Z,5.55
2022-08-25T07:19:57.787Z,5.77
2022-08-25T07:23:00.880Z,6.65
2022-08-25T07:26:27.088Z,8.50
2022-08-25T07:29:36.840Z,5.78
2022-08-25T07:32:45.458Z,5.82
2022-08-25T07:35:48.483Z,5.60
2022-08-25T07:38:53.277Z,5.72
2022-08-25T07:41:58.466Z,5.32
2022-08-25T07:45:01.565Z,5.35
2022-08-25T07:48:07.671Z,5.68
2022-08-25T07:51:11.945Z,5.20
2022-08-25T07:54:15.126Z,6.13
2022-08-25T07:57:18.256Z,5.75
2022-08-25T08:00:21.510Z,5.32
2022-08-25T08:03:44.670Z,5.43
2022-08-25T08:06:47.680Z,5.33
2022-08-25T08:10:00.470Z,6.25
2022-08-25T08:13:17.997Z,5.00
2022-08-25T08:16:22.794Z,5.35
2022-08-25T08:19:25.812Z,6.15
2022-08-25T08:22:29.457Z,5.33
2022-08-25T08:25:32.810Z,5.40
2022-08-25T08:28:35.882Z,5.55
2022-08-25T08:31:39.464Z,5.25
2022-08-25T08:34:42.662Z,5.22
2022-08-25T08:37:47.356Z,5.20
2022-08-25T08:41:23.340Z,5.35
2022-08-25T08:44:50.043Z,5.20
2022-08-25T08:48:11.516Z,5.20
2022-08-25T08:51:24.580Z,5.47
2022-08-25T08:54:29.486Z,5.73
2022-08-25T08:57:40.954Z,5.13
2022-08-25T09:00:52.331Z,4.72
2022-08-25T09:04:24.285Z,4.65
2022-08-25T09:07:37.972Z,4.47
2022-08-25T09:11:03.372Z,4.73
2022-08-25T09:14:13.231Z,5.80
2022-08-25T09:17:54.231Z,5.50
2022-08-25T09:21:20.938Z,4.88
2022-08-25T09:24:38.615Z,5.30
2022-08-25T09:28:07.665Z,5.10
2022-08-25T09:31:29.152Z,5.05
2022-08-25T09:34:33.968Z,4.40
2022-08-25T09:37:36.915Z,6.00
2022-08-25T09:40:42.577Z,5.22
2022-08-25T09:43:52.456Z,5.00
2022-08-25T09:47:22.667Z,4.68
2022-08-25T09:50:25.880Z,5.03
2022-08-25T09:53:33.831Z,4.60
2022-08-25T09:56:47.110Z,5.50
2022-08-25T09:59:57.218Z,4.63
2022-08-25T10:03:24.810Z,4.80
2022-08-25T10:06:36.677Z,4.55
2022-08-25T10:09:41.802Z,4.88
2022-08-25T10:12:51.128Z,4.70
2022-08-25T10:16:25.111Z,5.00
2022-08-25T10:19:29.488Z,4.78
2022-08-25T10:22:34.360Z,4.55
2022-08-25T10:25:37.337Z,4.50
2022-08-25T10:29:13.267Z,4.20
2022-08-25T10:32:31.468Z,4.50
2022-08-25T10:36:21.892Z,4.50
2022-08-25T10:39:55.425Z,4.45
2022-08-25T10:43:10.605Z,4.65
2022-08-25T10:46:18.850Z,4.68
2022-08-25T10:49:33.994Z,4.67
2022-08-25T10:52:43.628Z,5.22
2022-08-25T10:55:55.172Z,4.53
2022-08-25T10:59:27.308Z,4.85
2022-08-25T11:03:02.476Z,4.88
2022-08-25T11:06:07.445Z,4.47
2022-08-25T11:09:14.966Z,4.60
2022-08-25T11:12:42.955Z,4.80
2022-08-25T11:16:17.463Z,4.88
2022-08-25T11:19:33.929Z,4.82
2022-08-25T11:22:53.191Z,4.60
2022-08-25T11:26:01.811Z,4.75
2022-08-25T11:29:16.580Z,5.00
2022-08-25T11:32:20.991Z,4.72
2022-08-25T11:35:29.689Z,4.88
2022-08-25T11:38:39.010Z,4.87
2022-08-25T11:41:46.324Z,5.05
2022-08-25T11:45:04.286Z,5.43
2022-08-25T11:48:13.268Z,5.70
2022-08-25T11:51:31.457Z,6.28
2022-08-25T11:54:44.258Z,5.30
2022-08-25T11:57:53.290Z,5.13
2022-08-25T12:00:57.493Z,5.30
2022-08-25T12:04:17.364Z,5.20
2022-08-25T12:07:22.645Z,5.57
2022-08-25T12:10:26.090Z,5.57
2022-08-25T12:13:42.742Z,5.32
2022-08-25T12:17:05.801Z,5.60
2022-08-25T12:20:09.061Z,5.20
2022-08-25T12:23:12.936Z,5.32
2022-08-25T12:26:33.934Z,5.40
2022-08-25T12:29:44.530Z,5.83
2022-08-25T12:33:19.323Z,5.90
2022-08-25T12:36:31.489Z,5.30
2022-08-25T12:39:37.593Z,5.45
2022-08-25T12:42:43.336Z,5.50
2022-08-25T12:45:50.872Z,5.32
2022-08-25T12:49:26.481Z,5.03
2022-08-25T12:52:30.625Z,5.00
2022-08-25T12:55:33.649Z,5.10
2022-08-25T12:58:59.975Z,5.03
2022-08-25T13:02:18.752Z,5.00
2022-08-25T13:05:21.868Z,4.15
2022-08-25T13:08:48.045Z,5.03
2022-08-25T13:12:04.377Z,4.40
2022-08-25T13:15:07.454Z,4.97
2022-08-25T13:18:29.029Z,4.90
2022-08-25T13:21:38.902Z,4.85
2022-08-25T13:24:43.623Z,4.65
2022-08-25T13:27:58.690Z,5.27
2022-08-25T13:31:02.921Z,5.50
2022-08-25T13:34:08.213Z,4.88
2022-08-25T13:37:29.583Z,4.68
2022-08-25T13:40:36.541Z,4.72
2022-08-25T13:43:40.967Z,4.47
2022-08-25T13:46:45.382Z,4.70
2022-08-25T13:49:48.424Z,4.80
2022-08-25T13:53:06.229Z,4.50
2022-08-25T13:56:10.482Z,4.95
2022-08-25T13:59:25.212Z,4.93
2022-08-25T14:02:51.718Z,5.37
2022-08-25T14:06:09.188Z,4.70
2022-08-25T14:09:17.232Z,4.10
2022-08-25T14:12:30.991Z,4.22
2022-08-25T14:15:34.110Z,4.87
2022-08-25T14:18:37.140Z,4.07
2022-08-25T14:21:40.853Z,4.28
2022-08-25T14:24:45.162Z,4.90
2022-08-25T14:28:13.437Z,4.72
2022-08-25T14:31:25.810Z,4.10
2022-08-25T14:34:33.006Z,4.50
2022-08-25T14:37:35.981Z,4.40
2022-08-25T14:40:40.278Z,4.40
2022-08-25T14:43:43.332Z,4.63
2022-08-25T14:46:51.332Z,4.37
2022-08-25T14:49:55.781Z,4.90
2022-08-25T14:52:59.679Z,5.10
2022-08-25T14:56:08.420Z,4.32
2022-08-25T14:59:13.483Z,4.55
2022-08-25T15:02:20.262Z,4.40
2022-08-25T15:05:28.352Z,4.27
2022-08-25T15:08:50.080Z,3.95
2022-08-25T15:11:56.070Z,4.30
2022-08-25T15:14:59.040Z,4.32
2022-08-25T15:18:02.029Z,4.40
2022-08-25T15:21:05.123Z,4.37
2022-08-25T15:24:09.380Z,4.22
2022-08-25T15:27:14.589Z,4.30
2022-08-25T15:30:17.657Z,4.10
2022-08-25T15:33:22.806Z,4.13
2022-08-25T15:36:26.219Z,5.00
2022-08-25T15:39:29.259Z,4.55
2022-08-25T15:42:32.342Z,4.30
2022-08-25T15:45:38.283Z,4.35
2022-08-25T15:48:41.566Z,4.50
2022-08-25T15:51:45.318Z,4.73
2022-08-25T15:54:48.478Z,4.38
2022-08-25T15:57:51.441Z,4.30
2022-08-25T16:00:56.536Z,4.07
2022-08-25T16:03:59.951Z,4.43
2022-08-25T16:07:02.913Z,3.93
2022-08-25T16:10:07.412Z,3.75
2022-08-25T16:13:11.240Z,4.90
2022-08-25T16:16:17.439Z,3.95
2022-08-25T16:19:20.465Z,4.77
2022-08-25T16:22:23.599Z,4.70
2022-08-25T16:25:29.719Z,4.43
2022-08-25T16:28:32.681Z,4.30
2022-08-25T16:31:36.680Z,3.92
2022-08-25T16:34:40.477Z,4.27
2022-08-25T16:37:44.239Z,4.70
2022-08-25T16:40:47.181Z,4.38
2022-08-25T16:43:51.298Z,4.07
2022-08-25T16:46:55.335Z,4.60
2022-08-25T16:49:59.118Z,4.67
2022-08-25T16:53:23.888Z,4.37
2022-08-25T16:56:27.911Z,4.80
2022-08-25T16:59:30.887Z,4.60
2022-08-25T17:02:33.935Z,4.50
2022-08-25T17:05:42.219Z,4.43
2022-08-25T17:08:45.798Z,4.47
2022-08-25T17:11:49.154Z,4.00
2022-08-25T17:14:52.311Z,4.05
2022-08-25T17:17:55.328Z,4.68
2022-08-25T17:20:59.949Z,4.37
2022-08-25T17:24:04.903Z,4.87
2022-08-25T17:27:08.389Z,5.20
2022-08-25T17:30:11.704Z,5.10
2022-08-25T17:33:15.169Z,4.82
2022-08-25T17:36:18.344Z,4.90
2022-08-25T17:39:22.140Z,4.80
2022-08-25T17:42:25.519Z,4.75
2022-08-25T17:45:33.623Z,5.28
2022-08-25T17:48:37.059Z,5.20
2022-08-25T17:51:40.080Z,5.00
2022-08-25T17:54:43.302Z,5.23
2022-08-25T17:57:46.638Z,4.65
2022-08-25T18:00:49.685Z,5.40
2022-08-25T18:03:52.841Z,5.07
2022-08-25T18:06:55.996Z,5.40
2022-08-25T18:09:59.234Z,5.00
2022-08-25T18:13:02.262Z,4.60
2022-08-25T18:16:05.820Z,4.95
2022-08-25T18:19:12.414Z,5.00
2022-08-25T18:22:17.449Z,5.07
2022-08-25T18:25:20.386Z,5.80
2022-08-25T18:28:24.963Z,6.25
2022-08-25T18:31:29.100Z,5.80
2022-08-25T18:34:32.288Z,5.65
2022-08-25T18:37:53.714Z,5.83
2022-08-25T18:41:01.181Z,5.37
2022-08-25T18:44:04.463Z,5.78
2022-08-25T18:47:07.799Z,5.95
2022-08-25T18:50:11.073Z,5.35
2022-08-25T18:53:14.130Z,5.90
2022-08-25T18:56:17.169Z,5.57
2022-08-25T18:59:23.560Z,5.07
2022-08-25T19:02:27.785Z,5.63
2022-08-25T19:05:33.915Z,5.75
2022-08-25T19:08:39.512Z,5.40
2022-08-25T19:11:45.967Z,5.90
2022-08-25T19:14:50.020Z,5.97
2022-08-25T19:17:53.679Z,5.90
2022-08-25T19:20:58.085Z,5.75
2022-08-25T19:24:03.268Z,5.70
2022-08-25T19:27:06.385Z,5.27
2022-08-25T19:30:17.629Z,5.43
2022-08-25T19:33:42.290Z,5.32
2022-08-25T19:36:43.899Z,5.63
2022-08-25T19:39:52.870Z,5.47
2022-08-25T19:42:56.711Z,5.67
2022-08-25T19:45:59.935Z,5.85
2022-08-25T19:49:17.292Z,5.47
2022-08-25T19:52:24.880Z,5.57
2022-08-25T19:55:29.817Z,6.10
2022-08-25T19:58:33.088Z,6.00
2022-08-25T20:01:37.101Z,6.10
2022-08-25T20:04:49.797Z,6.35
2022-08-25T20:07:54.017Z,6.30
2022-08-25T20:10:57.044Z,6.27
2022-08-25T20:14:03.640Z,6.40
2022-08-25T20:17:14.486Z,5.55
2022-08-25T20:20:32.375Z,5.35
2022-08-25T20:23:55.902Z,6.18
2022-08-25T20:27:00.193Z,5.50
2022-08-25T20:30:04.478Z,5.47
2022-08-25T20:33:08.297Z,6.38
2022-08-25T20:36:14.964Z,5.60
2022-08-25T20:39:18.061Z,5.80
2022-08-25T20:42:21.323Z,5.67
2022-08-25T20:45:24.551Z,6.30
2022-08-25T20:48:27.909Z,6.22
2022-08-25T20:51:31.130Z,6.60
2022-08-25T20:54:34.426Z,7.05
2022-08-25T20:57:38.000Z,6.77
2022-08-25T21:00:44.970Z,6.37
2022-08-25T21:03:48.158Z,6.75
2022-08-25T21:06:51.172Z,6.88
2022-08-25T21:09:54.189Z,6.43
2022-08-25T21:12:57.147Z,6.50
2022-08-25T21:16:02.540Z,6.40
2022-08-25T21:19:08.904Z,6.75
2022-08-25T21:22:13.952Z,6.57
2022-08-25T21:25:17.914Z,7.45
2022-08-25T21:28:21.133Z,6.67
2022-08-25T21:31:24.230Z,5.83
2022-08-25T21:34:29.104Z,6.30
2022-08-25T21:37:32.383Z,7.47
2022-08-25T21:40:36.828Z,6.78
2022-08-25T21:43:39.939Z,6.43
2022-08-25T21:46:54.638Z,6.90
2022-08-25T21:49:57.790Z,6.20
2022-08-25T21:53:00.786Z,6.50
2022-08-25T21:56:05.345Z,6.13
2022-08-25T21:59:13.566Z,7.77
2022-08-25T22:02:22.406Z,7.30
2022-08-25T22:05:26.198Z,6.88
2022-08-25T22:08:30.698Z,6.50
2022-08-25T22:11:35.918Z,6.53
2022-08-25T22:14:39.340Z,6.53
2022-08-25T22:17:42.978Z,6.40
2022-08-25T22:20:45.937Z,6.60
2022-08-25T22:23:49.908Z,7.00
2022-08-25T22:26:52.975Z,7.47
2022-08-25T22:29:58.692Z,6.50
2022-08-25T22:33:01.729Z,6.40
2022-08-25T22:36:17.128Z,6.13
2022-08-25T22:39:21.450Z,6.40
2022-08-25T22:42:25.636Z,6.82
2022-08-25T22:45:28.853Z,7.07
2022-08-25T22:48:32.465Z,6.37
2022-08-25T22:51:36.933Z,6.43
2022-08-25T22:54:40.917Z,6.95
2022-08-25T22:57:43.861Z,6.30
2022-08-25T23:00:47.785Z,6.97
2022-08-25T23:03:51.804Z,6.33
2022-08-25T23:06:54.844Z,6.60
2022-08-25T23:10:03.205Z,6.45
2022-08-25T23:13:07.130Z,6.95
2022-08-25T23:16:10.684Z,6.83
2022-08-25T23:19:14.329Z,6.37
2022-08-25T23:22:17.726Z,6.35
2022-08-25T23:25:21.249Z,6.53
2022-08-25T23:28:24.302Z,6.53
2022-08-25T23:31:27.353Z,6.37
2022-08-25T23:34:31.025Z,6.80
2022-08-25T23:37:36.834Z,6.30
2022-08-25T23:40:42.997Z,6.40
2022-08-25T23:43:47.163Z,6.47
2022-08-25T23:46:52.143Z,5.77
2022-08-25T23:49:55.590Z,6.23
2022-08-25T23:52:58.741Z,6.60
2022-08-25T23:56:02.763Z,6.32
2022-08-25T23:59:09.348Z,6.20
